createdAt,value
2017-06-03T00:00:46.971Z,17.36
2017-06-03T00:03:41.280Z,17.30
2017-06-03T00:06:35.924Z,17.20
2017-06-03T00:12:08.571Z,17.10
2017-06-03T00:14:52.352Z,17.18
2017-06-03T00:17:46.317Z,17.19
2017-06-03T00:20:40.718Z,17.15
2017-06-03T00:24:09.133Z,17.07
2017-06-03T00:28:37.265Z,17.02
2017-06-03T00:31:21.445Z,17.06
2017-06-03T00:38:35.530Z,17.08
2017-06-03T00:41:41.812Z,17.18
2017-06-03T00:44:28.748Z,17.18
2017-06-03T00:47:22.961Z,17.12
2017-06-03T00:50:39.961Z,17.02
2017-06-03T00:53:38.784Z,16.94
2017-06-03T00:56:28.357Z,16.86
2017-06-03T01:06:20.927Z,16.92
2017-06-03T01:09:04.257Z,17.02
2017-06-03T01:12:09.182Z,16.99
2017-06-03T01:14:58.557Z,16.90
2017-06-03T01:37:24.377Z,17.17
2017-06-03T01:45:35.138Z,17.24
2017-06-03T01:48:18.509Z,17.24
2017-06-03T02:21:36.488Z,17.31
2017-06-03T04:37:28.881Z,17.97
2017-06-03T04:40:34.670Z,17.98
2017-06-03T04:43:21.608Z,17.87
2017-06-03T04:47:34.865Z,17.69
2017-06-03T05:02:22.782Z,18.16
2017-06-03T05:05:39.950Z,18.28
2017-06-03T05:11:26.735Z,18.34
2017-06-03T05:14:33.183Z,18.43
2017-06-03T05:17:20.366Z,18.46
2017-06-03T05:20:14.647Z,18.44
2017-06-03T05:23:09.242Z,18.39
2017-06-03T05:26:03.942Z,18.31
2017-06-03T05:28:58.583Z,18.23
2017-06-03T05:48:59.103Z,19.35
2017-06-03T05:51:53.769Z,19.58
2017-06-03T05:55:28.123Z,19.69
2017-06-03T05:58:13.876Z,19.74
2017-06-03T06:01:08.242Z,19.76
2017-06-03T06:04:02.972Z,19.75
2017-06-03T06:06:57.726Z,19.75
2017-06-03T06:09:52.565Z,19.72
2017-06-03T06:12:47.393Z,19.74
2017-06-03T06:15:42.264Z,19.76
2017-06-03T06:18:37.182Z,19.78
2017-06-03T06:21:32.068Z,19.81
2017-06-03T06:24:27.095Z,19.88
2017-06-03T06:27:21.996Z,19.94
2017-06-03T06:30:17.022Z,20.00
2017-06-03T06:33:11.872Z,20.08
2017-06-03T06:36:06.719Z,20.16
2017-06-03T06:39:01.712Z,20.26
2017-06-03T06:41:56.723Z,20.36
2017-06-03T06:44:51.745Z,20.47
2017-06-03T06:47:46.722Z,20.59
2017-06-03T06:50:41.841Z,20.71
2017-06-03T06:53:36.811Z,20.81
2017-06-03T06:56:31.785Z,20.89
2017-06-03T06:59:26.849Z,21.00
2017-06-03T07:02:21.840Z,21.13
2017-06-03T07:05:16.773Z,21.24
2017-06-03T07:08:11.792Z,21.34
2017-06-03T07:11:06.869Z,21.46
2017-06-03T07:14:02.035Z,21.59
2017-06-03T07:16:57.265Z,21.72
2017-06-03T07:19:52.433Z,21.85
2017-06-03T07:22:47.553Z,21.98
2017-06-03T07:25:42.673Z,22.09
2017-06-03T07:28:37.732Z,22.17
2017-06-03T07:34:27.766Z,22.21
2017-06-03T07:37:22.755Z,22.23
2017-06-03T07:40:17.807Z,22.29
2017-06-03T07:43:12.815Z,22.37
2017-06-03T07:46:07.939Z,22.43
2017-06-03T07:49:02.954Z,22.48
2017-06-03T07:51:58.166Z,22.55
2017-06-03T07:54:53.341Z,22.65
2017-06-03T07:57:48.470Z,22.76
2017-06-03T08:00:43.649Z,22.90
2017-06-03T08:03:38.894Z,23.04
2017-06-03T08:06:34.106Z,23.20
2017-06-03T08:09:29.238Z,23.40
2017-06-03T08:12:24.550Z,23.60
2017-06-03T08:15:19.810Z,23.81
2017-06-03T08:18:15.162Z,24.04
2017-06-03T08:21:10.467Z,24.21
2017-06-03T08:24:05.779Z,24.29
2017-06-03T08:27:00.877Z,24.26
2017-06-03T08:29:55.970Z,24.20
2017-06-03T08:32:51.256Z,24.18
2017-06-03T08:35:46.588Z,24.22
2017-06-03T08:38:41.918Z,24.35
2017-06-03T08:41:37.182Z,24.46
2017-06-03T08:44:32.679Z,24.56
2017-06-03T08:47:28.039Z,24.71
2017-06-03T08:50:23.665Z,24.92
2017-06-03T08:53:19.071Z,25.14
2017-06-03T08:56:14.445Z,25.29
2017-06-03T08:59:09.848Z,25.48
2017-06-03T09:02:05.327Z,25.68
2017-06-03T09:05:00.847Z,25.91
2017-06-03T09:07:56.316Z,26.13
2017-06-03T09:10:51.524Z,26.21
2017-06-03T09:13:46.719Z,26.18
2017-06-03T09:16:41.901Z,26.10
2017-06-03T09:19:37.060Z,26.00
2017-06-03T09:22:32.177Z,25.83
2017-06-03T09:25:27.262Z,25.67
2017-06-03T09:28:22.411Z,25.50
2017-06-03T09:31:17.538Z,25.38
2017-06-03T09:34:12.546Z,25.26
2017-06-03T09:37:07.599Z,25.13
2017-06-03T09:40:02.685Z,25.01
2017-06-03T09:42:57.789Z,24.88
2017-06-03T09:45:52.816Z,24.74
2017-06-03T09:48:47.824Z,24.58
2017-06-03T09:51:42.909Z,24.44
2017-06-03T09:54:37.864Z,24.30
2017-06-03T09:57:33.088Z,24.19
2017-06-03T10:00:28.157Z,24.11
2017-06-03T10:03:23.180Z,24.05
2017-06-03T10:06:18.250Z,24.01
2017-06-03T10:09:13.275Z,23.97
2017-06-03T10:12:08.368Z,23.93
2017-06-03T10:15:03.400Z,23.89
2017-06-03T10:17:58.554Z,23.85
2017-06-03T10:20:53.449Z,23.82
2017-06-03T10:23:48.673Z,23.78
2017-06-03T10:26:43.748Z,23.75
2017-06-03T10:29:38.991Z,23.72
2017-06-03T10:32:34.103Z,23.68
2017-06-03T10:35:29.231Z,23.67
2017-06-03T10:38:24.193Z,23.66
2017-06-03T10:41:19.177Z,23.63
2017-06-03T10:44:14.302Z,23.62
2017-06-03T10:47:09.397Z,23.61
2017-06-03T10:50:04.465Z,23.59
2017-06-03T10:52:59.548Z,23.57
2017-06-03T10:58:49.566Z,23.48
2017-06-03T11:01:44.518Z,23.43
2017-06-03T11:04:39.575Z,23.40
2017-06-03T11:07:34.531Z,23.36
2017-06-03T11:10:29.561Z,23.31
2017-06-03T11:13:24.610Z,23.23
2017-06-03T11:16:19.673Z,23.16
2017-06-03T11:19:14.738Z,23.10
2017-06-03T11:22:21.045Z,23.03
